sensor_id;sensor_type;location;lat;lon;timestamp;P1;durP1;ratioP1;P2;durP2;ratioP2
23432;SDS011;41331;45.412;10.992;2023-04-01T00:00:11;34.42;;;19.27;;
23432;SDS011;41331;45.412;10.992;2023-04-01T00:02:40;37.08;;;20.77;;
23432;SDS011;41331;45.412;10.992;2023-04-01T00:05:08;44.75;;;20.63;;
23432;SDS011;41331;45.412;10.992;2023-04-01T00:07:40;33.25;;;19.25;;
23432;SDS011;41331;45.412;10.992;2023-04-01T00:10:08;31.50;;;19.17;;
23432;SDS011;41331;45.412;10.992;2023-04-01T00:12:38;32.85;;;18.73;;
23432;SDS011;41331;45.412;10.992;2023-04-01T00:15:07;33.03;;;19.70;;
23432;SDS011;41331;45.412;10.992;2023-04-01T00:17:35;30.95;;;18.85;;
23432;SDS011;41331;45.412;10.992;2023-04-01T00:20:03;36.42;;;18.75;;
23432;SDS011;41331;45.412;10.992;2023-04-01T00:22:34;35.92;;;19.15;;
23432;SDS011;41331;45.412;10.992;2023-04-01T00:25:02;40.20;;;18.33;;
23432;SDS011;41331;45.412;10.992;2023-04-01T00:27:31;31.52;;;19.17;;
23432;SDS011;41331;45.412;10.992;2023-04-01T00:29:58;28.42;;;17.60;;
23432;SDS011;41331;45.412;10.992;2023-04-01T00:32:25;32.58;;;18.23;;
23432;SDS011;41331;45.412;10.992;2023-04-01T00:34:53;32.58;;;17.33;;
23432;SDS011;41331;45.412;10.992;2023-04-01T00:37:20;33.33;;;17.63;;
23432;SDS011;41331;45.412;10.992;2023-04-01T00:39:48;30.70;;;18.58;;
23432;SDS011;41331;45.412;10.992;2023-04-01T00:42:15;31.38;;;17.92;;
23432;SDS011;41331;45.412;10.992;2023-04-01T00:44:44;30.27;;;17.38;;
23432;SDS011;41331;45.412;10.992;2023-04-01T00:47:12;30.27;;;17.33;;
23432;SDS011;41331;45.412;10.992;2023-04-01T00:49:41;38.70;;;18.40;;
23432;SDS011;41331;45.412;10.992;2023-04-01T00:52:12;29.98;;;18.27;;
23432;SDS011;41331;45.412;10.992;2023-04-01T00:54:43;33.97;;;18.88;;
23432;SDS011;41331;45.412;10.992;2023-04-01T00:57:25;29.60;;;17.65;;
23432;SDS011;41331;45.412;10.992;2023-04-01T01:02:25;30.92;;;18.15;;
23432;SDS011;41331;45.412;10.992;2023-04-01T01:04:52;33.55;;;17.67;;
23432;SDS011;41331;45.412;10.992;2023-04-01T01:10:09;32.25;;;17.85;;
23432;SDS011;41331;45.412;10.992;2023-04-01T01:15:32;36.15;;;20.20;;
23432;SDS011;41331;45.412;10.992;2023-04-01T01:28:47;36.28;;;23.63;;
23432;SDS011;41331;45.412;10.992;2023-04-01T01:36:59;39.67;;;25.45;;
23432;SDS011;41331;45.412;10.992;2023-04-01T01:39:31;44.15;;;27.10;;
23432;SDS011;41331;45.412;10.992;2023-04-01T01:42:03;44.08;;;27.27;;
23432;SDS011;41331;45.412;10.992;2023-04-01T01:44:34;38.92;;;26.27;;
23432;SDS011;41331;45.412;10.992;2023-04-01T01:47:04;42.83;;;27.27;;
23432;SDS011;41331;45.412;10.992;2023-04-01T01:49:32;50.35;;;27.63;;
23432;SDS011;41331;45.412;10.992;2023-04-01T01:52:02;49.65;;;25.85;;
23432;SDS011;41331;45.412;10.992;2023-04-01T01:54:30;44.88;;;24.85;;
23432;SDS011;41331;45.412;10.992;2023-04-01T01:57:05;43.88;;;25.50;;
23432;SDS011;41331;45.412;10.992;2023-04-01T01:59:40;40.33;;;25.75;;
23432;SDS011;41331;45.412;10.992;2023-04-01T02:02:13;44.63;;;27.40;;
23432;SDS011;41331;45.412;10.992;2023-04-01T02:04:44;38.90;;;25.40;;
23432;SDS011;41331;45.412;10.992;2023-04-01T02:07:27;46.97;;;26.10;;
23432;SDS011;41331;45.412;10.992;2023-04-01T02:10:00;44.30;;;27.65;;
23432;SDS011;41331;45.412;10.992;2023-04-01T02:12:28;45.75;;;26.80;;
23432;SDS011;41331;45.412;10.992;2023-04-01T02:15:09;40.03;;;25.67;;
23432;SDS011;41331;45.412;10.992;2023-04-01T02:17:40;41.00;;;25.92;;
23432;SDS011;41331;45.412;10.992;2023-04-01T02:20:13;38.63;;;25.63;;
23432;SDS011;41331;45.412;10.992;2023-04-01T02:22:51;43.33;;;26.87;;
23432;SDS011;41331;45.412;10.992;2023-04-01T02:25:25;41.40;;;25.92;;
23432;SDS011;41331;45.412;10.992;2023-04-01T02:27:56;40.88;;;26.25;;
23432;SDS011;41331;45.412;10.992;2023-04-01T02:30:27;40.38;;;25.02;;
23432;SDS011;41331;45.412;10.992;2023-04-01T02:32:57;47.63;;;25.42;;
23432;SDS011;41331;45.412;10.992;2023-04-01T02:35:25;39.40;;;24.83;;
23432;SDS011;41331;45.412;10.992;2023-04-01T02:37:54;48.38;;;25.45;;
23432;SDS011;41331;45.412;10.992;2023-04-01T02:40:22;37.70;;;23.98;;
23432;SDS011;41331;45.412;10.992;2023-04-01T02:42:49;38.85;;;24.20;;
23432;SDS011;41331;45.412;10.992;2023-04-01T02:45:17;34.50;;;23.05;;
23432;SDS011;41331;45.412;10.992;2023-04-01T02:47:45;38.20;;;23.60;;
23432;SDS011;41331;45.412;10.992;2023-04-01T02:50:12;39.20;;;23.45;;
23432;SDS011;41331;45.412;10.992;2023-04-01T02:52:40;39.72;;;24.10;;
23432;SDS011;41331;45.412;10.992;2023-04-01T02:55:07;37.10;;;23.30;;
23432;SDS011;41331;45.412;10.992;2023-04-01T02:57:35;32.20;;;21.05;;
23432;SDS011;41331;45.412;10.992;2023-04-01T03:00:02;34.13;;;21.45;;
23432;SDS011;41331;45.412;10.992;2023-04-01T03:02:30;33.08;;;20.30;;
23432;SDS011;41331;45.412;10.992;2023-04-01T03:04:58;32.15;;;19.15;;
23432;SDS011;41331;45.412;10.992;2023-04-01T03:07:25;26.55;;;17.90;;
23432;SDS011;41331;45.412;10.992;2023-04-01T03:09:53;28.88;;;17.05;;
23432;SDS011;41331;45.412;10.992;2023-04-01T03:12:20;27.17;;;16.35;;
23432;SDS011;41331;45.412;10.992;2023-04-01T03:14:50;25.42;;;16.52;;
23432;SDS011;41331;45.412;10.992;2023-04-01T03:17:17;31.50;;;19.63;;
23432;SDS011;41331;45.412;10.992;2023-04-01T03:19:45;30.20;;;18.52;;
23432;SDS011;41331;45.412;10.992;2023-04-01T03:22:13;26.05;;;17.73;;
23432;SDS011;41331;45.412;10.992;2023-04-01T03:24:40;25.75;;;17.17;;
23432;SDS011;41331;45.412;10.992;2023-04-01T03:27:08;32.42;;;16.58;;
23432;SDS011;41331;45.412;10.992;2023-04-01T03:29:35;31.52;;;17.52;;
23432;SDS011;41331;45.412;10.992;2023-04-01T03:32:02;29.70;;;17.70;;
23432;SDS011;41331;45.412;10.992;2023-04-01T03:34:30;27.17;;;16.75;;
23432;SDS011;41331;45.412;10.992;2023-04-01T03:36:58;26.67;;;16.55;;
23432;SDS011;41331;45.412;10.992;2023-04-01T03:39:26;29.23;;;17.02;;
23432;SDS011;41331;45.412;10.992;2023-04-01T03:41:54;29.63;;;17.65;;
23432;SDS011;41331;45.412;10.992;2023-04-01T03:44:22;27.85;;;17.02;;
23432;SDS011;41331;45.412;10.992;2023-04-01T03:46:52;28.13;;;17.20;;
23432;SDS011;41331;45.412;10.992;2023-04-01T03:49:20;28.83;;;16.88;;
23432;SDS011;41331;45.412;10.992;2023-04-01T03:51:47;34.28;;;18.20;;
23432;SDS011;41331;45.412;10.992;2023-04-01T03:54:14;35.83;;;18.35;;
23432;SDS011;41331;45.412;10.992;2023-04-01T03:56:43;33.45;;;20.25;;
23432;SDS011;41331;45.412;10.992;2023-04-01T03:59:11;36.05;;;22.20;;
23432;SDS011;41331;45.412;10.992;2023-04-01T04:01:39;29.88;;;21.40;;
23432;SDS011;41331;45.412;10.992;2023-04-01T04:04:06;36.63;;;20.80;;
23432;SDS011;41331;45.412;10.992;2023-04-01T04:06:34;37.17;;;21.90;;
23432;SDS011;41331;45.412;10.992;2023-04-01T04:09:01;39.65;;;21.27;;
23432;SDS011;41331;45.412;10.992;2023-04-01T04:11:30;38.47;;;22.13;;
23432;SDS011;41331;45.412;10.992;2023-04-01T04:13:59;37.30;;;22.52;;
23432;SDS011;41331;45.412;10.992;2023-04-01T04:16:26;35.00;;;21.00;;
23432;SDS011;41331;45.412;10.992;2023-04-01T04:18:58;39.03;;;22.23;;
23432;SDS011;41331;45.412;10.992;2023-04-01T04:21:26;38.08;;;21.65;;
23432;SDS011;41331;45.412;10.992;2023-04-01T04:23:54;32.80;;;21.65;;
23432;SDS011;41331;45.412;10.992;2023-04-01T04:26:21;34.03;;;21.88;;
23432;SDS011;41331;45.412;10.992;2023-04-01T04:28:57;36.90;;;22.48;;
23432;SDS011;41331;45.412;10.992;2023-04-01T04:31:25;38.63;;;22.25;;
23432;SDS011;41331;45.412;10.992;2023-04-01T04:33:55;42.42;;;22.38;;
23432;SDS011;41331;45.412;10.992;2023-04-01T04:36:23;37.38;;;22.13;;
23432;SDS011;41331;45.412;10.992;2023-04-01T04:38:51;34.58;;;22.58;;
23432;SDS011;41331;45.412;10.992;2023-04-01T04:41:19;37.05;;;22.73;;
23432;SDS011;41331;45.412;10.992;2023-04-01T04:43:50;36.72;;;21.92;;
23432;SDS011;41331;45.412;10.992;2023-04-01T04:46:20;38.80;;;23.17;;
23432;SDS011;41331;45.412;10.992;2023-04-01T04:48:51;32.20;;;22.27;;
23432;SDS011;41331;45.412;10.992;2023-04-01T04:51:18;44.28;;;22.20;;
23432;SDS011;41331;45.412;10.992;2023-04-01T04:53:47;38.33;;;22.17;;
23432;SDS011;41331;45.412;10.992;2023-04-01T04:56:20;42.88;;;23.23;;
23432;SDS011;41331;45.412;10.992;2023-04-01T04:59:03;38.85;;;23.98;;
23432;SDS011;41331;45.412;10.992;2023-04-01T05:01:40;42.33;;;23.40;;
23432;SDS011;41331;45.412;10.992;2023-04-01T05:04:08;37.10;;;23.33;;
23432;SDS011;41331;45.412;10.992;2023-04-01T05:06:35;37.65;;;24.08;;
23432;SDS011;41331;45.412;10.992;2023-04-01T05:09:03;43.00;;;23.52;;
23432;SDS011;41331;45.412;10.992;2023-04-01T05:11:31;36.00;;;21.13;;
23432;SDS011;41331;45.412;10.992;2023-04-01T05:13:58;32.95;;;21.90;;
23432;SDS011;41331;45.412;10.992;2023-04-01T05:16:26;40.38;;;22.42;;
23432;SDS011;41331;45.412;10.992;2023-04-01T05:18:54;33.97;;;21.38;;
23432;SDS011;41331;45.412;10.992;2023-04-01T05:21:21;35.00;;;21.15;;
23432;SDS011;41331;45.412;10.992;2023-04-01T05:23:49;35.72;;;20.48;;
23432;SDS011;41331;45.412;10.992;2023-04-01T05:26:17;30.65;;;19.67;;
23432;SDS011;41331;45.412;10.992;2023-04-01T05:28:44;28.02;;;18.52;;
23432;SDS011;41331;45.412;10.992;2023-04-01T05:31:12;29.88;;;19.27;;
23432;SDS011;41331;45.412;10.992;2023-04-01T05:33:43;32.72;;;18.73;;
23432;SDS011;41331;45.412;10.992;2023-04-01T05:36:11;34.65;;;19.95;;
23432;SDS011;41331;45.412;10.992;2023-04-01T05:38:43;29.67;;;19.27;;
23432;SDS011;41331;45.412;10.992;2023-04-01T05:41:15;28.08;;;18.48;;
23432;SDS011;41331;45.412;10.992;2023-04-01T05:43:45;30.38;;;18.77;;
23432;SDS011;41331;45.412;10.992;2023-04-01T05:46:31;31.88;;;17.88;;
23432;SDS011;41331;45.412;10.992;2023-04-01T05:49:20;26.75;;;18.67;;
23432;SDS011;41331;45.412;10.992;2023-04-01T05:51:49;29.40;;;19.27;;
23432;SDS011;41331;45.412;10.992;2023-04-01T05:54:18;33.63;;;18.67;;
23432;SDS011;41331;45.412;10.992;2023-04-01T05:56:46;30.25;;;19.98;;
23432;SDS011;41331;45.412;10.992;2023-04-01T05:59:15;33.58;;;19.50;;
23432;SDS011;41331;45.412;10.992;2023-04-01T06:01:42;28.63;;;17.13;;
23432;SDS011;41331;45.412;10.992;2023-04-01T06:04:12;26.35;;;17.65;;
23432;SDS011;41331;45.412;10.992;2023-04-01T06:06:42;60.78;;;34.00;;
23432;SDS011;41331;45.412;10.992;2023-04-01T06:09:16;122.50;;;40.65;;
23432;SDS011;41331;45.412;10.992;2023-04-01T06:12:04;74.80;;;42.65;;
23432;SDS011;41331;45.412;10.992;2023-04-01T06:14:47;63.25;;;39.92;;
23432;SDS011;41331;45.412;10.992;2023-04-01T06:17:22;63.20;;;39.15;;
23432;SDS011;41331;45.412;10.992;2023-04-01T06:20:20;60.45;;;38.60;;
23432;SDS011;41331;45.412;10.992;2023-04-01T06:39:35;54.05;;;35.08;;
23432;SDS011;41331;45.412;10.992;2023-04-01T06:48:59;48.95;;;33.47;;
23432;SDS011;41331;45.412;10.992;2023-04-01T06:52:09;44.88;;;30.67;;
23432;SDS011;41331;45.412;10.992;2023-04-01T06:55:01;41.85;;;28.23;;
23432;SDS011;41331;45.412;10.992;2023-04-01T06:57:56;37.95;;;25.83;;
23432;SDS011;41331;45.412;10.992;2023-04-01T07:00:29;42.20;;;28.17;;
23432;SDS011;41331;45.412;10.992;2023-04-01T07:06:05;39.33;;;26.08;;
23432;SDS011;41331;45.412;10.992;2023-04-01T07:08:41;41.35;;;26.90;;
23432;SDS011;41331;45.412;10.992;2023-04-01T07:11:19;38.17;;;27.23;;
23432;SDS011;41331;45.412;10.992;2023-04-01T07:14:33;37.85;;;26.30;;
23432;SDS011;41331;45.412;10.992;2023-04-01T07:22:33;29.92;;;22.27;;
23432;SDS011;41331;45.412;10.992;2023-04-01T07:25:27;30.33;;;22.90;;
23432;SDS011;41331;45.412;10.992;2023-04-01T07:28:21;29.60;;;21.80;;
23432;SDS011;41331;45.412;10.992;2023-04-01T07:31:13;29.52;;;20.85;;
23432;SDS011;41331;45.412;10.992;2023-04-01T07:36:42;29.25;;;22.85;;
23432;SDS011;41331;45.412;10.992;2023-04-01T07:45:04;26.10;;;21.75;;
23432;SDS011;41331;45.412;10.992;2023-04-01T07:50:38;29.88;;;21.80;;
23432;SDS011;41331;45.412;10.992;2023-04-01T07:53:15;29.42;;;22.83;;
23432;SDS011;41331;45.412;10.992;2023-04-01T07:56:05;32.83;;;21.60;;
23432;SDS011;41331;45.412;10.992;2023-04-01T08:01:49;34.58;;;23.23;;
23432;SDS011;41331;45.412;10.992;2023-04-01T08:21:20;30.45;;;21.38;;
23432;SDS011;41331;45.412;10.992;2023-04-01T08:23:52;27.30;;;20.00;;
23432;SDS011;41331;45.412;10.992;2023-04-01T08:26:32;25.33;;;19.27;;
23432;SDS011;41331;45.412;10.992;2023-04-01T08:29:17;25.60;;;20.25;;
23432;SDS011;41331;45.412;10.992;2023-04-01T08:34:23;24.77;;;19.67;;
23432;SDS011;41331;45.412;10.992;2023-04-01T08:37:04;29.38;;;19.98;;
23432;SDS011;41331;45.412;10.992;2023-04-01T08:40:01;28.27;;;19.80;;
23432;SDS011;41331;45.412;10.992;2023-04-01T08:45:37;25.35;;;18.95;;
23432;SDS011;41331;45.412;10.992;2023-04-01T08:56:34;27.90;;;22.42;;
23432;SDS011;41331;45.412;10.992;2023-04-01T09:17:43;22.08;;;17.95;;
23432;SDS011;41331;45.412;10.992;2023-04-01T09:20:24;24.30;;;16.85;;
23432;SDS011;41331;45.412;10.992;2023-04-01T09:46:04;21.55;;;16.55;;
23432;SDS011;41331;45.412;10.992;2023-04-01T09:51:52;21.88;;;16.38;;
23432;SDS011;41331;45.412;10.992;2023-04-01T10:33:59;3.75;;;1.77;;
23432;SDS011;41331;45.412;10.992;2023-04-01T10:36:46;8.30;;;1.98;;
23432;SDS011;41331;45.412;10.992;2023-04-01T10:45:32;28.95;;;2.28;;
23432;SDS011;41331;45.412;10.992;2023-04-01T10:48:21;5.93;;;2.17;;
23432;SDS011;41331;45.412;10.992;2023-04-01T10:56:49;5.35;;;2.45;;
23432;SDS011;41331;45.412;10.992;2023-04-01T11:00:04;7.07;;;2.60;;
23432;SDS011;41331;45.412;10.992;2023-04-01T11:26:04;6.03;;;2.55;;
23432;SDS011;41331;45.412;10.992;2023-04-01T11:34:09;5.72;;;2.88;;
23432;SDS011;41331;45.412;10.992;2023-04-01T11:44:03;4.82;;;1.80;;
23432;SDS011;41331;45.412;10.992;2023-04-01T11:46:18;4.40;;;1.77;;
23432;SDS011;41331;45.412;10.992;2023-04-01T11:51:34;6.68;;;1.63;;
23432;SDS011;41331;45.412;10.992;2023-04-01T12:02:09;4.15;;;2.20;;
23432;SDS011;41331;45.412;10.992;2023-04-01T12:07:50;6.07;;;2.40;;
23432;SDS011;41331;45.412;10.992;2023-04-01T12:10:18;5.82;;;2.60;;
23432;SDS011;41331;45.412;10.992;2023-04-01T12:43:02;19.65;;;7.70;;
23432;SDS011;41331;45.412;10.992;2023-04-01T12:48:31;5.25;;;2.28;;
23432;SDS011;41331;45.412;10.992;2023-04-01T12:53:44;5.03;;;2.20;;
23432;SDS011;41331;45.412;10.992;2023-04-01T12:59:18;6.28;;;2.85;;
23432;SDS011;41331;45.412;10.992;2023-04-01T13:13:34;9.52;;;3.40;;
23432;SDS011;41331;45.412;10.992;2023-04-01T13:16:30;20.13;;;11.77;;
23432;SDS011;41331;45.412;10.992;2023-04-01T13:27:17;6.03;;;2.92;;
23432;SDS011;41331;45.412;10.992;2023-04-01T13:30:03;11.40;;;3.00;;
23432;SDS011;41331;45.412;10.992;2023-04-01T13:43:55;7.18;;;3.42;;
23432;SDS011;41331;45.412;10.992;2023-04-01T13:52:14;7.47;;;3.07;;
23432;SDS011;41331;45.412;10.992;2023-04-01T14:03:30;7.57;;;2.47;;
23432;SDS011;41331;45.412;10.992;2023-04-01T14:11:50;5.20;;;1.90;;
23432;SDS011;41331;45.412;10.992;2023-04-01T14:20:42;6.35;;;2.25;;
23432;SDS011;41331;45.412;10.992;2023-04-01T14:23:29;7.25;;;2.55;;
23432;SDS011;41331;45.412;10.992;2023-04-01T14:34:44;8.55;;;2.85;;
23432;SDS011;41331;45.412;10.992;2023-04-01T14:37:48;5.70;;;2.80;;
23432;SDS011;41331;45.412;10.992;2023-04-01T14:51:51;9.57;;;2.40;;
23432;SDS011;41331;45.412;10.992;2023-04-01T14:54:21;5.50;;;2.70;;
23432;SDS011;41331;45.412;10.992;2023-04-01T14:57:10;19.52;;;2.40;;
23432;SDS011;41331;45.412;10.992;2023-04-01T14:59:40;37.10;;;3.58;;
23432;SDS011;41331;45.412;10.992;2023-04-01T15:02:18;12.30;;;2.50;;
23432;SDS011;41331;45.412;10.992;2023-04-01T15:05:14;8.23;;;2.90;;
23432;SDS011;41331;45.412;10.992;2023-04-01T15:08:12;5.15;;;2.92;;
23432;SDS011;41331;45.412;10.992;2023-04-01T15:11:04;4.88;;;2.78;;
23432;SDS011;41331;45.412;10.992;2023-04-01T15:16:31;6.80;;;2.72;;
23432;SDS011;41331;45.412;10.992;2023-04-01T15:27:59;5.57;;;3.15;;
23432;SDS011;41331;45.412;10.992;2023-04-01T15:30:56;7.47;;;2.92;;
23432;SDS011;41331;45.412;10.992;2023-04-01T15:33:45;7.25;;;2.92;;
23432;SDS011;41331;45.412;10.992;2023-04-01T15:36:29;6.65;;;3.08;;
23432;SDS011;41331;45.412;10.992;2023-04-01T15:39:29;7.93;;;2.72;;
23432;SDS011;41331;45.412;10.992;2023-04-01T15:49:58;5.65;;;1.30;;
23432;SDS011;41331;45.412;10.992;2023-04-01T15:58:27;2.38;;;1.10;;
23432;SDS011;41331;45.412;10.992;2023-04-01T16:18:02;2.45;;;1.10;;
23432;SDS011;41331;45.412;10.992;2023-04-01T16:20:43;3.90;;;1.10;;
23432;SDS011;41331;45.412;10.992;2023-04-01T16:23:37;3.25;;;0.93;;
